createdAt,value
2019-02-11T00:01:00.583Z,5.49
2019-02-11T00:06:55.600Z,5.9
2019-02-11T00:12:50.573Z,5.11
2019-02-11T00:18:45.637Z,5.11
2019-02-11T00:24:40.601Z,4.55
2019-02-11T00:30:35.612Z,4.68
2019-02-11T00:36:30.590Z,4.05
2019-02-11T00:42:25.601Z,4.9
2019-02-11T00:48:20.633Z,4.55
2019-02-11T00:54:15.620Z,4.82
2019-02-11T01:00:10.649Z,4.38
2019-02-11T01:06:05.641Z,3.85
2019-02-11T01:12:00.635Z,4.54
2019-02-11T01:17:55.628Z,4.01
2019-02-11T01:23:50.636Z,3.4
2019-02-11T01:29:45.648Z,4.1
2019-02-11T01:35:40.715Z,3.28
2019-02-11T01:41:35.643Z,3.05
2019-02-11T01:47:30.638Z,2.49
2019-02-11T01:53:25.659Z,3.57
2019-02-11T01:59:20.651Z,3.04
2019-02-11T02:05:15.683Z,3.23
2019-02-11T02:11:10.708Z,3.28
2019-02-11T02:17:05.657Z,3.75
2019-02-11T02:23:00.671Z,3.76
2019-02-11T02:28:55.676Z,3.1
2019-02-11T02:34:50.695Z,3.61
2019-02-11T02:40:45.678Z,3.9
2019-02-11T02:46:40.694Z,4.08
2019-02-11T02:52:35.738Z,4.78
2019-02-11T02:58:30.702Z,4.27
2019-02-11T03:04:25.684Z,4.76
2019-02-11T03:10:20.708Z,4.51
2019-02-11T03:16:15.700Z,5.2
2019-02-11T03:22:10.717Z,4.9
2019-02-11T03:28:05.693Z,5.86
2019-02-11T03:34:00.713Z,5.79
2019-02-11T03:39:55.720Z,6.14
2019-02-11T03:45:50.718Z,6.22
2019-02-11T03:51:45.725Z,5.51
2019-02-11T03:57:40.756Z,5.1
2019-02-11T04:03:35.789Z,3.89
2019-02-11T04:09:30.734Z,4.94
2019-02-11T04:15:25.726Z,3.95
2019-02-11T04:21:20.770Z,4.37
2019-02-11T04:27:15.744Z,3.8
2019-02-11T04:33:10.768Z,4.44
2019-02-11T04:39:05.748Z,4.53
2019-02-11T04:45:00.792Z,4.15
2019-02-11T04:50:55.769Z,4.05
2019-02-11T04:56:50.763Z,4.19
2019-02-11T05:02:45.785Z,5.39
2019-02-11T05:08:40.785Z,7.45
2019-02-11T05:14:43.425Z,8.43
2019-02-11T05:20:30.826Z,9.55
2019-02-11T05:26:25.777Z,9.72
2019-02-11T09:23:06.285Z,11.21
2019-02-11T09:23:06.301Z,11.21
2019-02-11T09:23:06.316Z,11.21
2019-02-11T09:23:06.316Z,4.68
2019-02-11T09:23:06.316Z,11.21
2019-02-11T09:23:06.316Z,11.21
2019-02-11T09:23:06.316Z,11.21
2019-02-11T09:23:06.316Z,11.21
2019-02-11T09:23:06.316Z,10.24
2019-02-11T09:23:06.345Z,4.68
2019-02-11T09:23:06.345Z,11.21
2019-02-11T09:23:06.383Z,4.68
2019-02-11T09:23:06.394Z,4.68
2019-02-11T09:23:06.404Z,4.68
2019-02-11T09:23:06.412Z,4.68
2019-02-11T09:23:06.430Z,4.68
2019-02-11T09:23:06.452Z,4.68
2019-02-11T09:23:06.482Z,4.68
2019-02-11T09:23:06.502Z,4.68
2019-02-11T09:23:06.528Z,4.68
2019-02-11T09:23:06.569Z,4.68
2019-02-11T09:23:06.573Z,4.68
2019-02-11T09:23:06.652Z,4.68
2019-02-11T09:23:06.663Z,4.68
2019-02-11T09:23:06.685Z,4.68
2019-02-11T09:23:06.751Z,4.68
2019-02-11T09:23:06.757Z,4.68
2019-02-11T09:23:06.788Z,4.68
2019-02-11T09:23:06.829Z,4.68
2019-02-11T09:23:06.848Z,4.68
2019-02-11T09:23:06.891Z,4.68
2019-02-11T09:23:06.920Z,4.68
2019-02-11T09:23:06.928Z,4.68
2019-02-11T09:23:06.968Z,4.68
2019-02-11T09:23:06.985Z,4.68
2019-02-11T09:23:07.011Z,4.68
2019-02-11T09:23:07.063Z,4.68
2019-02-11T09:23:07.086Z,4.68
2019-02-11T09:23:07.102Z,4.68
2019-02-11T09:23:07.133Z,4.68
2019-02-11T09:29:00.934Z,5.46
2019-02-11T09:34:55.919Z,6.64
2019-02-11T09:40:50.909Z,5.6
2019-02-11T09:46:45.928Z,3.48
2019-02-11T09:52:40.976Z,6.65
2019-02-11T09:58:35.934Z,4.62
2019-02-11T10:04:30.927Z,3.45
2019-02-11T10:10:25.937Z,4.42
2019-02-11T10:16:22.245Z,3.59
2019-02-11T10:22:15.997Z,2.4
2019-02-11T10:28:11.010Z,3.67
2019-02-11T10:34:05.977Z,3.27
2019-02-11T10:40:00.986Z,2.44
2019-02-11T10:45:55.962Z,1.31
2019-02-11T10:51:50.953Z,1.64
2019-02-11T10:57:45.993Z,1.64
2019-02-11T11:03:40.970Z,1.16
2019-02-11T11:09:35.973Z,1.24
2019-02-11T11:15:30.990Z,0.73
2019-02-11T11:21:25.972Z,0.83
2019-02-11T11:27:20.974Z,0.71
2019-02-11T11:33:15.988Z,0.84
2019-02-11T11:39:10.979Z,0.74
2019-02-11T11:45:06.016Z,0.59
2019-02-11T11:51:01.003Z,0.45
2019-02-11T11:56:59.130Z,0.5
2019-02-11T12:03:01.320Z,0.64
2019-02-11T12:08:46.058Z,0.62
2019-02-11T12:14:41.596Z,0.71
2019-02-11T12:20:36.084Z,0.63
2019-02-11T12:26:31.078Z,0.37
2019-02-11T12:32:26.050Z,0.48
2019-02-11T12:38:21.085Z,0.45
2019-02-11T12:44:16.038Z,0.34
2019-02-11T12:50:11.052Z,0.49
2019-02-11T12:56:06.052Z,0.4
2019-02-11T13:02:01.043Z,0.48
2019-02-11T13:07:56.080Z,0.57
2019-02-11T13:13:51.064Z,0.37
2019-02-11T13:19:46.085Z,0.46
2019-02-11T13:25:41.106Z,0.44
2019-02-11T13:31:36.093Z,0.48
2019-02-11T13:37:31.071Z,0.5
2019-02-11T13:43:26.083Z,0.58
2019-02-11T13:49:21.109Z,0.41
2019-02-11T13:55:16.151Z,0.41
2019-02-11T14:01:11.112Z,0.44
2019-02-11T14:07:06.086Z,0.45
2019-02-11T14:13:01.164Z,0.48
2019-02-11T14:18:56.101Z,0.6
2019-02-11T14:24:51.091Z,0.5
2019-02-11T14:30:46.124Z,0.59
2019-02-11T14:36:43.212Z,0.6
2019-02-11T14:42:36.112Z,0.69
2019-02-11T14:48:31.129Z,0.85
2019-02-11T14:54:26.137Z,0.69
2019-02-11T15:00:21.165Z,0.5
2019-02-11T15:06:16.121Z,0.78
2019-02-11T15:12:11.153Z,0.8
2019-02-11T15:18:06.132Z,2.63
2019-02-11T15:24:01.152Z,1.27
2019-02-11T15:29:56.187Z,0.58
2019-02-11T15:35:51.140Z,2.9
2019-02-11T15:41:46.142Z,1.41
2019-02-11T15:47:41.157Z,0.6
2019-02-11T15:53:36.156Z,0.55
2019-02-11T15:59:31.153Z,0.8
2019-02-11T16:05:26.194Z,0.53
2019-02-11T16:11:21.166Z,0.69
2019-02-11T16:17:16.185Z,0.87
2019-02-11T16:23:11.161Z,0.68
2019-02-11T16:29:06.197Z,1.44
2019-02-11T16:35:01.194Z,2.38
2019-02-11T16:40:56.167Z,2.91
2019-02-11T16:46:51.170Z,4.67
2019-02-11T16:52:46.182Z,3.29
2019-02-11T16:58:41.194Z,3.83
2019-02-11T17:04:36.218Z,2.38
2019-02-11T17:10:31.206Z,2.47
2019-02-11T17:16:26.220Z,2.04
2019-02-11T17:22:21.245Z,3.82
2019-02-11T17:28:16.215Z,1.91
2019-02-11T17:34:11.209Z,2.27
2019-02-11T17:40:06.229Z,3.01
2019-02-11T17:46:01.211Z,2.24
2019-02-11T17:51:56.258Z,2.62
2019-02-11T17:57:51.244Z,2.62
2019-02-11T18:03:46.224Z,3.05
2019-02-11T18:09:41.235Z,1.64
2019-02-11T18:15:36.250Z,1.74
2019-02-11T18:21:32.724Z,2.28
2019-02-11T18:27:26.263Z,4.59
2019-02-11T18:33:21.272Z,6.7
2019-02-11T18:39:16.258Z,7.47
2019-02-11T18:45:11.247Z,7.34
2019-02-11T18:51:06.310Z,4.14
2019-02-11T18:57:01.271Z,3.04
2019-02-11T19:02:56.357Z,4.17
2019-02-11T19:08:51.290Z,3.26
2019-02-11T19:14:46.274Z,4.34
2019-02-11T19:20:41.289Z,10
2019-02-11T19:26:36.278Z,10.13
2019-02-11T19:32:31.333Z,6.9
2019-02-11T19:38:26.294Z,9.22
2019-02-11T19:44:21.277Z,14.12
2019-02-11T19:50:16.310Z,10.61
2019-02-11T19:56:11.306Z,8.81
2019-02-11T20:02:06.335Z,8.95
2019-02-11T20:08:01.341Z,8.4
2019-02-11T20:13:56.308Z,7.84
2019-02-11T20:19:51.329Z,8.09
2019-02-11T20:25:46.321Z,7.87
2019-02-11T20:31:41.345Z,7.05
2019-02-11T20:37:36.331Z,5.24
2019-02-11T20:43:31.351Z,6.16
2019-02-11T20:49:26.340Z,7.88
2019-02-11T20:55:21.373Z,7.71
2019-02-11T21:01:16.337Z,7.99
2019-02-11T21:07:11.363Z,9.22
2019-02-11T21:13:06.340Z,11.38
2019-02-11T21:19:01.364Z,12.41
2019-02-11T21:24:56.358Z,13.44
2019-02-11T21:30:51.425Z,15.86
2019-02-11T21:36:46.369Z,13.15
2019-02-11T21:42:41.375Z,13.5
2019-02-11T21:48:36.396Z,14.12
2019-02-11T21:54:31.364Z,12.43
2019-02-11T22:00:26.362Z,11.33
2019-02-11T22:06:21.383Z,9.84
2019-02-11T22:12:16.412Z,8.93
2019-02-11T22:18:11.394Z,7.91
2019-02-11T22:24:06.374Z,7.82
2019-02-11T22:30:01.398Z,8.59
2019-02-11T22:35:56.409Z,7.86
2019-02-11T22:41:51.379Z,10.05
2019-02-11T22:47:46.408Z,9.64
2019-02-11T22:53:41.402Z,9.14
2019-02-11T22:59:36.465Z,10.05
2019-02-11T23:05:31.406Z,9.93
2019-02-11T23:11:26.398Z,10.29
2019-02-11T23:17:21.408Z,9.88
2019-02-11T23:23:16.451Z,9.9
2019-02-11T23:29:11.428Z,7.77
2019-02-11T23:35:06.475Z,7.53
2019-02-11T23:41:01.437Z,7.69
2019-02-11T23:46:56.422Z,7.19
2019-02-11T23:52:51.467Z,6.56
2019-02-11T23:58:46.495Z,6.65
